sensor_id;sensor_type;location;lat;lon;timestamp;pressure;altitude;pressure_sealevel;temperature;humidity
70758;BME280;59316;52.964;7.102;2023-03-16T00:02:09;101837.91;;;2.60;nan
70758;BME280;59316;52.964;7.102;2023-03-16T00:07:32;101836.88;;;2.75;nan
70758;BME280;59316;52.964;7.102;2023-03-16T00:12:54;101846.31;;;2.79;nan
70758;BME280;59316;52.964;7.102;2023-03-16T00:18:16;101843.03;;;2.67;nan
70758;BME280;59316;52.964;7.102;2023-03-16T00:23:37;101842.94;;;2.71;nan
70758;BME280;59316;52.964;7.102;2023-03-16T00:28:59;101830.81;;;2.79;nan
70758;BME280;59316;52.964;7.102;2023-03-16T00:34:20;101832.31;;;2.97;nan
70758;BME280;59316;52.964;7.102;2023-03-16T00:39:44;101835.81;;;2.92;nan
70758;BME280;59316;52.964;7.102;2023-03-16T00:45:06;101816.03;;;2.89;nan
70758;BME280;59316;52.964;7.102;2023-03-16T00:50:28;101819.94;;;3.21;nan
70758;BME280;59316;52.964;7.102;2023-03-16T00:55:49;101814.97;;;3.09;nan
70758;BME280;59316;52.964;7.102;2023-03-16T01:01:14;101814.66;;;3.32;nan
70758;BME280;59316;52.964;7.102;2023-03-16T01:06:37;101810.22;;;3.39;nan
70758;BME280;59316;52.964;7.102;2023-03-16T01:11:59;101798.81;;;3.54;nan
70758;BME280;59316;52.964;7.102;2023-03-16T01:17:21;101785.00;;;3.53;nan
70758;BME280;59316;52.964;7.102;2023-03-16T01:22:42;101780.50;;;3.66;nan
70758;BME280;59316;52.964;7.102;2023-03-16T01:28:04;101786.50;;;3.70;nan
70758;BME280;59316;52.964;7.102;2023-03-16T01:33:26;101776.88;;;3.78;nan
70758;BME280;59316;52.964;7.102;2023-03-16T01:38:48;101770.00;;;3.77;nan
70758;BME280;59316;52.964;7.102;2023-03-16T01:44:16;101758.53;;;3.90;nan
70758;BME280;59316;52.964;7.102;2023-03-16T01:49:39;101739.75;;;3.79;nan
70758;BME280;59316;52.964;7.102;2023-03-16T01:55:05;101737.91;;;3.87;nan
70758;BME280;59316;52.964;7.102;2023-03-16T02:00:28;101738.53;;;4.00;nan
70758;BME280;59316;52.964;7.102;2023-03-16T02:06:18;101725.31;;;4.16;nan
70758;BME280;59316;52.964;7.102;2023-03-16T02:11:46;101727.94;;;4.14;nan
70758;BME280;59316;52.964;7.102;2023-03-16T02:17:07;101708.94;;;4.15;nan
70758;BME280;59316;52.964;7.102;2023-03-16T02:22:29;101713.19;;;4.18;nan
70758;BME280;59316;52.964;7.102;2023-03-16T02:28:18;101708.81;;;4.21;nan
70758;BME280;59316;52.964;7.102;2023-03-16T02:33:49;101694.06;;;4.26;nan
70758;BME280;59316;52.964;7.102;2023-03-16T02:39:12;101692.22;;;4.30;nan
70758;BME280;59316;52.964;7.102;2023-03-16T02:44:38;101679.50;;;4.19;nan
70758;BME280;59316;52.964;7.102;2023-03-16T02:50:01;101685.53;;;4.20;nan
70758;BME280;59316;52.964;7.102;2023-03-16T02:55:23;101687.97;;;4.27;nan
70758;BME280;59316;52.964;7.102;2023-03-16T03:00:45;101687.25;;;4.21;nan
70758;BME280;59316;52.964;7.102;2023-03-16T03:06:09;101684.56;;;4.25;nan
70758;BME280;59316;52.964;7.102;2023-03-16T03:11:32;101677.28;;;4.44;nan
70758;BME280;59316;52.964;7.102;2023-03-16T03:16:54;101677.09;;;4.54;nan
70758;BME280;59316;52.964;7.102;2023-03-16T03:22:15;101681.44;;;4.53;nan
70758;BME280;59316;52.964;7.102;2023-03-16T03:27:37;101660.53;;;4.61;nan
70758;BME280;59316;52.964;7.102;2023-03-16T03:33:02;101667.50;;;4.57;nan
70758;BME280;59316;52.964;7.102;2023-03-16T03:38:24;101657.03;;;4.64;nan
70758;BME280;59316;52.964;7.102;2023-03-16T03:43:47;101664.81;;;4.62;nan
70758;BME280;59316;52.964;7.102;2023-03-16T03:49:11;101650.19;;;4.59;nan
70758;BME280;59316;52.964;7.102;2023-03-16T03:54:33;101635.69;;;4.52;nan
70758;BME280;59316;52.964;7.102;2023-03-16T03:59:59;101628.69;;;4.56;nan
70758;BME280;59316;52.964;7.102;2023-03-16T04:05:32;101619.25;;;4.53;nan
70758;BME280;59316;52.964;7.102;2023-03-16T04:10:54;101615.56;;;4.62;nan
70758;BME280;59316;52.964;7.102;2023-03-16T04:16:15;101605.28;;;4.59;nan
70758;BME280;59316;52.964;7.102;2023-03-16T04:21:39;101602.53;;;4.67;nan
70758;BME280;59316;52.964;7.102;2023-03-16T04:27:01;101600.25;;;4.53;nan
70758;BME280;59316;52.964;7.102;2023-03-16T04:32:23;101596.03;;;4.49;nan
70758;BME280;59316;52.964;7.102;2023-03-16T04:37:44;101596.16;;;4.42;nan
70758;BME280;59316;52.964;7.102;2023-03-16T04:43:06;101590.88;;;4.47;nan
70758;BME280;59316;52.964;7.102;2023-03-16T04:48:29;101584.84;;;4.46;nan
70758;BME280;59316;52.964;7.102;2023-03-16T04:53:51;101572.75;;;4.47;nan
70758;BME280;59316;52.964;7.102;2023-03-16T04:59:18;101571.84;;;4.48;nan
70758;BME280;59316;52.964;7.102;2023-03-16T05:04:47;101567.41;;;4.55;nan
70758;BME280;59316;52.964;7.102;2023-03-16T05:10:12;101570.78;;;4.57;nan
70758;BME280;59316;52.964;7.102;2023-03-16T05:15:35;101571.56;;;4.60;nan
70758;BME280;59316;52.964;7.102;2023-03-16T05:21:11;101561.00;;;4.70;nan
70758;BME280;59316;52.964;7.102;2023-03-16T05:26:50;101550.47;;;4.76;nan
70758;BME280;59316;52.964;7.102;2023-03-16T05:32:14;101553.06;;;4.76;nan
70758;BME280;59316;52.964;7.102;2023-03-16T05:37:37;101568.66;;;4.74;nan
70758;BME280;59316;52.964;7.102;2023-03-16T05:43:06;101561.00;;;4.70;nan
70758;BME280;59316;52.964;7.102;2023-03-16T05:48:34;101566.81;;;4.79;nan
70758;BME280;59316;52.964;7.102;2023-03-16T05:53:57;101554.78;;;4.77;nan
70758;BME280;59316;52.964;7.102;2023-03-16T05:59:25;101572.22;;;4.70;nan
70758;BME280;59316;52.964;7.102;2023-03-16T06:04:49;101571.34;;;4.71;nan
70758;BME280;59316;52.964;7.102;2023-03-16T06:10:12;101565.44;;;4.65;nan
70758;BME280;59316;52.964;7.102;2023-03-16T06:15:34;101572.25;;;4.69;nan
70758;BME280;59316;52.964;7.102;2023-03-16T06:20:56;101573.94;;;4.71;nan
70758;BME280;59316;52.964;7.102;2023-03-16T06:26:17;101573.84;;;4.74;nan
70758;BME280;59316;52.964;7.102;2023-03-16T06:31:40;101565.97;;;4.77;nan
70758;BME280;59316;52.964;7.102;2023-03-16T06:37:03;101549.75;;;4.71;nan
70758;BME280;59316;52.964;7.102;2023-03-16T06:42:25;101555.63;;;4.77;nan
70758;BME280;59316;52.964;7.102;2023-03-16T06:47:47;101552.09;;;4.82;nan
70758;BME280;59316;52.964;7.102;2023-03-16T06:53:09;101549.38;;;4.86;nan
70758;BME280;59316;52.964;7.102;2023-03-16T06:58:31;101566.28;;;5.01;nan
70758;BME280;59316;52.964;7.102;2023-03-16T07:03:54;101566.19;;;5.06;nan
70758;BME280;59316;52.964;7.102;2023-03-16T07:09:20;101574.75;;;5.08;nan
70758;BME280;59316;52.964;7.102;2023-03-16T07:14:42;101583.06;;;5.22;nan
70758;BME280;59316;52.964;7.102;2023-03-16T07:20:06;101571.81;;;5.22;nan
70758;BME280;59316;52.964;7.102;2023-03-16T07:25:30;101584.59;;;5.30;nan
70758;BME280;59316;52.964;7.102;2023-03-16T07:30:52;101572.50;;;5.30;nan
70758;BME280;59316;52.964;7.102;2023-03-16T07:36:29;101570.69;;;5.32;nan
70758;BME280;59316;52.964;7.102;2023-03-16T07:41:53;101561.97;;;5.35;nan
70758;BME280;59316;52.964;7.102;2023-03-16T07:47:30;101573.09;;;5.40;nan
70758;BME280;59316;52.964;7.102;2023-03-16T07:52:56;101571.94;;;5.50;nan
70758;BME280;59316;52.964;7.102;2023-03-16T07:58:18;101566.16;;;5.72;nan
70758;BME280;59316;52.964;7.102;2023-03-16T08:03:44;101569.47;;;5.77;nan
70758;BME280;59316;52.964;7.102;2023-03-16T08:09:05;101566.16;;;5.73;nan
70758;BME280;59316;52.964;7.102;2023-03-16T08:14:30;101587.75;;;5.74;nan
70758;BME280;59316;52.964;7.102;2023-03-16T08:19:59;101589.38;;;5.78;nan
70758;BME280;59316;52.964;7.102;2023-03-16T08:25:21;101582.94;;;5.91;nan
70758;BME280;59316;52.964;7.102;2023-03-16T08:30:57;101586.00;;;6.06;nan
70758;BME280;59316;52.964;7.102;2023-03-16T08:36:29;101570.47;;;6.04;nan
70758;BME280;59316;52.964;7.102;2023-03-16T08:41:53;101579.19;;;6.02;nan
70758;BME280;59316;52.964;7.102;2023-03-16T08:47:24;101572.06;;;6.08;nan
70758;BME280;59316;52.964;7.102;2023-03-16T08:52:47;101563.00;;;6.22;nan
70758;BME280;59316;52.964;7.102;2023-03-16T08:58:09;101564.34;;;6.35;nan
70758;BME280;59316;52.964;7.102;2023-03-16T09:03:32;101569.91;;;6.51;nan
70758;BME280;59316;52.964;7.102;2023-03-16T09:08:53;101573.91;;;6.62;nan
70758;BME280;59316;52.964;7.102;2023-03-16T09:14:15;101564.28;;;6.65;nan
70758;BME280;59316;52.964;7.102;2023-03-16T09:19:36;101574.53;;;6.70;nan
70758;BME280;59316;52.964;7.102;2023-03-16T09:25:11;101580.69;;;6.67;nan
70758;BME280;59316;52.964;7.102;2023-03-16T09:30:32;101580.00;;;6.62;nan
70758;BME280;59316;52.964;7.102;2023-03-16T09:35:54;101563.88;;;6.51;nan
70758;BME280;59316;52.964;7.102;2023-03-16T09:41:40;101581.69;;;6.63;nan
70758;BME280;59316;52.964;7.102;2023-03-16T09:47:10;101563.44;;;6.65;nan
70758;BME280;59316;52.964;7.102;2023-03-16T09:53:38;101562.56;;;6.64;nan
70758;BME280;59316;52.964;7.102;2023-03-16T09:58:33;101563.78;;;6.81;nan
70758;BME280;59316;52.964;7.102;2023-03-16T10:09:49;101547.06;;;7.15;nan
70758;BME280;59316;52.964;7.102;2023-03-16T10:15:26;101544.97;;;7.50;nan
70758;BME280;59316;52.964;7.102;2023-03-16T10:20:51;101530.13;;;7.77;nan
70758;BME280;59316;52.964;7.102;2023-03-16T10:26:25;101543.94;;;7.55;nan
70758;BME280;59316;52.964;7.102;2023-03-16T10:31:54;101536.81;;;7.61;nan
70758;BME280;59316;52.964;7.102;2023-03-16T10:37:20;101552.75;;;7.26;nan
70758;BME280;59316;52.964;7.102;2023-03-16T10:42:41;101557.22;;;7.22;nan
70758;BME280;59316;52.964;7.102;2023-03-16T10:48:14;101552.22;;;7.16;nan
70758;BME280;59316;52.964;7.102;2023-03-16T10:53:41;101541.94;;;7.13;nan
70758;BME280;59316;52.964;7.102;2023-03-16T10:59:35;101508.19;;;7.10;nan
70758;BME280;59316;52.964;7.102;2023-03-16T11:04:57;101506.03;;;7.23;nan
70758;BME280;59316;52.964;7.102;2023-03-16T11:10:44;101493.00;;;7.23;nan
70758;BME280;59316;52.964;7.102;2023-03-16T11:16:37;101495.63;;;7.23;nan
70758;BME280;59316;52.964;7.102;2023-03-16T11:33:27;101468.19;;;7.14;nan
70758;BME280;59316;52.964;7.102;2023-03-16T11:44:51;101466.78;;;7.29;nan
70758;BME280;59316;52.964;7.102;2023-03-16T11:50:28;101456.38;;;7.29;nan
70758;BME280;59316;52.964;7.102;2023-03-16T12:07:49;101401.38;;;7.62;nan
70758;BME280;59316;52.964;7.102;2023-03-16T12:13:54;101399.56;;;7.86;nan
70758;BME280;59316;52.964;7.102;2023-03-16T12:19:40;101385.81;;;7.83;nan
70758;BME280;59316;52.964;7.102;2023-03-16T12:25:24;101409.81;;;7.91;nan
70758;BME280;59316;52.964;7.102;2023-03-16T12:31:09;101383.41;;;7.78;nan
70758;BME280;59316;52.964;7.102;2023-03-16T12:59:20;101350.75;;;9.34;nan
70758;BME280;59316;52.964;7.102;2023-03-16T13:04:47;101346.56;;;9.49;nan
70758;BME280;59316;52.964;7.102;2023-03-16T13:10:18;101331.56;;;9.72;nan
70758;BME280;59316;52.964;7.102;2023-03-16T13:15:41;101321.38;;;9.48;nan
70758;BME280;59316;52.964;7.102;2023-03-16T13:21:34;101300.22;;;9.35;nan
70758;BME280;59316;52.964;7.102;2023-03-16T13:27:11;101313.56;;;9.29;nan
70758;BME280;59316;52.964;7.102;2023-03-16T13:33:23;101300.91;;;9.39;nan
70758;BME280;59316;52.964;7.102;2023-03-16T13:39:09;101291.53;;;9.35;nan
70758;BME280;59316;52.964;7.102;2023-03-16T13:44:39;101279.34;;;9.35;nan
70758;BME280;59316;52.964;7.102;2023-03-16T13:50:01;101271.47;;;9.54;nan
70758;BME280;59316;52.964;7.102;2023-03-16T13:55:31;101268.13;;;9.70;nan
70758;BME280;59316;52.964;7.102;2023-03-16T14:00:56;101241.31;;;9.84;nan
70758;BME280;59316;52.964;7.102;2023-03-16T14:06:29;101230.78;;;10.36;nan
70758;BME280;59316;52.964;7.102;2023-03-16T14:11:51;101228.75;;;10.75;nan
70758;BME280;59316;52.964;7.102;2023-03-16T14:17:19;101220.56;;;10.32;nan
70758;BME280;59316;52.964;7.102;2023-03-16T14:22:41;101205.06;;;10.62;nan
70758;BME280;59316;52.964;7.102;2023-03-16T14:28:06;101193.53;;;10.49;nan
70758;BME280;59316;52.964;7.102;2023-03-16T14:33:28;101197.28;;;10.27;nan
70758;BME280;59316;52.964;7.102;2023-03-16T14:38:50;101170.88;;;10.16;nan
70758;BME280;59316;52.964;7.102;2023-03-16T14:44:26;101181.44;;;10.30;nan
70758;BME280;59316;52.964;7.102;2023-03-16T14:49:50;101182.94;;;10.18;nan
70758;BME280;59316;52.964;7.102;2023-03-16T14:55:14;101168.25;;;10.16;nan
70758;BME280;59316;52.964;7.102;2023-03-16T15:00:37;101170.50;;;10.06;nan
70758;BME280;59316;52.964;7.102;2023-03-16T15:06:12;101172.22;;;10.23;nan
70758;BME280;59316;52.964;7.102;2023-03-16T15:11:33;101168.56;;;10.91;nan
70758;BME280;59316;52.964;7.102;2023-03-16T15:16:55;101162.63;;;11.50;nan
70758;BME280;59316;52.964;7.102;2023-03-16T15:22:23;101151.44;;;11.32;nan
70758;BME280;59316;52.964;7.102;2023-03-16T15:27:48;101135.16;;;11.27;nan
70758;BME280;59316;52.964;7.102;2023-03-16T15:33:11;101136.97;;;11.10;nan
70758;BME280;59316;52.964;7.102;2023-03-16T15:38:34;101142.34;;;10.93;nan
70758;BME280;59316;52.964;7.102;2023-03-16T15:43:58;101134.59;;;10.75;nan
70758;BME280;59316;52.964;7.102;2023-03-16T15:49:20;101133.25;;;10.52;nan
70758;BME280;59316;52.964;7.102;2023-03-16T15:54:41;101136.13;;;10.30;nan
70758;BME280;59316;52.964;7.102;2023-03-16T16:00:03;101134.19;;;10.17;nan
70758;BME280;59316;52.964;7.102;2023-03-16T16:05:26;101121.63;;;10.08;nan
70758;BME280;59316;52.964;7.102;2023-03-16T16:10:49;101106.34;;;10.00;nan
70758;BME280;59316;52.964;7.102;2023-03-16T16:16:12;101102.06;;;9.99;nan
70758;BME280;59316;52.964;7.102;2023-03-16T16:21:36;101109.34;;;9.93;nan
70758;BME280;59316;52.964;7.102;2023-03-16T16:26:57;101111.22;;;9.91;nan
70758;BME280;59316;52.964;7.102;2023-03-16T16:32:23;101094.03;;;9.86;nan
70758;BME280;59316;52.964;7.102;2023-03-16T16:37:45;101096.88;;;9.82;nan
70758;BME280;59316;52.964;7.102;2023-03-16T16:43:12;101096.41;;;9.74;nan
70758;BME280;59316;52.964;7.102;2023-03-16T16:48:46;101094.53;;;9.60;nan
70758;BME280;59316;52.964;7.102;2023-03-16T16:54:14;101094.31;;;9.47;nan
70758;BME280;59316;52.964;7.102;2023-03-16T16:59:40;101084.72;;;9.30;nan
70758;BME280;59316;52.964;7.102;2023-03-16T17:05:02;101095.09;;;9.14;nan
70758;BME280;59316;52.964;7.102;2023-03-16T17:10:25;101095.53;;;9.04;nan
70758;BME280;59316;52.964;7.102;2023-03-16T17:15:47;101088.75;;;8.83;nan
70758;BME280;59316;52.964;7.102;2023-03-16T17:21:13;101080.63;;;8.71;nan
70758;BME280;59316;52.964;7.102;2023-03-16T17:26:41;101080.50;;;8.55;nan
70758;BME280;59316;52.964;7.102;2023-03-16T17:32:17;101073.97;;;8.47;nan
70758;BME280;59316;52.964;7.102;2023-03-16T17:37:40;101079.19;;;8.28;nan
70758;BME280;59316;52.964;7.102;2023-03-16T17:43:02;101075.38;;;8.16;nan
70758;BME280;59316;52.964;7.102;2023-03-16T17:48:28;101092.00;;;8.13;nan
70758;BME280;59316;52.964;7.102;2023-03-16T17:53:50;101087.28;;;8.02;nan
70758;BME280;59316;52.964;7.102;2023-03-16T17:59:15;101086.44;;;8.02;nan
70758;BME280;59316;52.964;7.102;2023-03-16T18:04:38;101087.53;;;7.96;nan
70758;BME280;59316;52.964;7.102;2023-03-16T18:09:59;101080.81;;;7.90;nan
70758;BME280;59316;52.964;7.102;2023-03-16T18:15:24;101080.00;;;7.90;nan
70758;BME280;59316;52.964;7.102;2023-03-16T18:20:48;101066.44;;;7.82;nan
70758;BME280;59316;52.964;7.102;2023-03-16T18:26:10;101074.00;;;7.88;nan
70758;BME280;59316;52.964;7.102;2023-03-16T18:31:32;101065.06;;;7.94;nan
70758;BME280;59316;52.964;7.102;2023-03-16T18:36:54;101069.31;;;7.96;nan
70758;BME280;59316;52.964;7.102;2023-03-16T18:42:20;101050.75;;;8.04;nan
70758;BME280;59316;52.964;7.102;2023-03-16T18:47:51;101055.72;;;8.09;nan
70758;BME280;59316;52.964;7.102;2023-03-16T18:53:15;101051.22;;;8.12;nan
70758;BME280;59316;52.964;7.102;2023-03-16T18:58:36;101034.34;;;8.21;nan
70758;BME280;59316;52.964;7.102;2023-03-16T19:03:59;101032.22;;;8.29;nan
70758;BME280;59316;52.964;7.102;2023-03-16T19:09:26;101021.44;;;8.37;nan
70758;BME280;59316;52.964;7.102;2023-03-16T19:14:49;101012.91;;;8.33;nan
70758;BME280;59316;52.964;7.102;2023-03-16T19:20:19;100997.75;;;8.42;nan
70758;BME280;59316;52.964;7.102;2023-03-16T19:25:46;100998.59;;;8.42;nan
70758;BME280;59316;52.964;7.102;2023-03-16T19:31:18;100983.59;;;8.47;nan
70758;BME280;59316;52.964;7.102;2023-03-16T19:36:41;100984.63;;;8.43;nan
70758;BME280;59316;52.964;7.102;2023-03-16T19:42:03;100981.50;;;8.36;nan
70758;BME280;59316;52.964;7.102;2023-03-16T19:47:29;100990.22;;;8.35;nan
70758;BME280;59316;52.964;7.102;2023-03-16T19:52:54;100993.59;;;8.37;nan
70758;BME280;59316;52.964;7.102;2023-03-16T19:58:25;100993.16;;;8.29;nan
70758;BME280;59316;52.964;7.102;2023-03-16T20:03:50;100988.50;;;8.17;nan
70758;BME280;59316;52.964;7.102;2023-03-16T20:09:12;100979.91;;;8.15;nan
70758;BME280;59316;52.964;7.102;2023-03-16T20:14:33;100964.91;;;8.20;nan
70758;BME280;59316;52.964;7.102;2023-03-16T20:19:55;100950.19;;;8.19;nan
70758;BME280;59316;52.964;7.102;2023-03-16T20:25:17;100938.38;;;8.12;nan
70758;BME280;59316;52.964;7.102;2023-03-16T20:30:39;100923.50;;;8.14;nan
70758;BME280;59316;52.964;7.102;2023-03-16T20:36:00;100929.56;;;8.14;nan
70758;BME280;59316;52.964;7.102;2023-03-16T20:41:29;100934.41;;;8.22;nan
70758;BME280;59316;52.964;7.102;2023-03-16T20:46:51;100933.44;;;8.25;nan
70758;BME280;59316;52.964;7.102;2023-03-16T20:52:24;100924.25;;;8.35;nan
70758;BME280;59316;52.964;7.102;2023-03-16T20:57:52;100921.47;;;8.38;nan
70758;BME280;59316;52.964;7.102;2023-03-16T21:03:17;100912.34;;;8.47;nan
70758;BME280;59316;52.964;7.102;2023-03-16T21:08:40;100901.72;;;8.51;nan
70758;BME280;59316;52.964;7.102;2023-03-16T21:14:03;100912.59;;;8.77;nan
70758;BME280;59316;52.964;7.102;2023-03-16T21:19:26;100901.38;;;8.75;nan
70758;BME280;59316;52.964;7.102;2023-03-16T21:24:48;100900.16;;;8.82;nan
70758;BME280;59316;52.964;7.102;2023-03-16T21:35:43;100884.63;;;8.97;nan
70758;BME280;59316;52.964;7.102;2023-03-16T21:41:04;100875.66;;;9.02;nan
70758;BME280;59316;52.964;7.102;2023-03-16T21:46:26;100881.00;;;8.99;nan
70758;BME280;59316;52.964;7.102;2023-03-16T21:51:49;100883.22;;;9.07;nan
70758;BME280;59316;52.964;7.102;2023-03-16T21:57:12;100876.94;;;9.11;nan
70758;BME280;59316;52.964;7.102;2023-03-16T22:02:34;100880.53;;;9.09;nan
70758;BME280;59316;52.964;7.102;2023-03-16T22:07:57;100883.44;;;9.36;nan
70758;BME280;59316;52.964;7.102;2023-03-16T22:13:19;100877.00;;;9.10;nan
70758;BME280;59316;52.964;7.102;2023-03-16T22:18:41;100866.03;;;9.03;nan
70758;BME280;59316;52.964;7.102;2023-03-16T22:24:05;100846.69;;;9.07;nan
70758;BME280;59316;52.964;7.102;2023-03-16T22:29:34;100841.31;;;9.10;nan
70758;BME280;59316;52.964;7.102;2023-03-16T22:34:56;100832.53;;;8.95;nan
70758;BME280;59316;52.964;7.102;2023-03-16T22:40:18;100848.44;;;8.91;nan
70758;BME280;59316;52.964;7.102;2023-03-16T22:45:40;100845.66;;;8.94;nan
70758;BME280;59316;52.964;7.102;2023-03-16T22:51:02;100852.78;;;8.74;nan
70758;BME280;59316;52.964;7.102;2023-03-16T22:56:24;100855.69;;;8.68;nan
70758;BME280;59316;52.964;7.102;2023-03-16T23:01:47;100842.88;;;8.63;nan
70758;BME280;59316;52.964;7.102;2023-03-16T23:07:13;100855.78;;;8.49;nan
70758;BME280;59316;52.964;7.102;2023-03-16T23:12:34;100842.28;;;8.40;nan
70758;BME280;59316;52.964;7.102;2023-03-16T23:17:56;100854.88;;;8.32;nan
70758;BME280;59316;52.964;7.102;2023-03-16T23:23:17;100854.03;;;8.14;nan
70758;BME280;59316;52.964;7.102;2023-03-16T23:28:39;100855.13;;;7.91;nan
70758;BME280;59316;52.964;7.102;2023-03-16T23:34:00;100852.94;;;7.82;nan
70758;BME280;59316;52.964;7.102;2023-03-16T23:39:27;100827.00;;;7.80;nan
70758;BME280;59316;52.964;7.102;2023-03-16T23:44:49;100814.88;;;7.62;nan
70758;BME280;59316;52.964;7.102;2023-03-16T23:50:11;100844.97;;;7.67;nan
70758;BME280;59316;52.964;7.102;2023-03-16T23:55:33;100851.34;;;7.79;nan
